createdAt,value
2023-12-02T00:00:46.008Z,-1.96
2023-12-02T00:01:46.030Z,-1.95
2023-12-02T00:02:46.029Z,-1.95
2023-12-02T00:03:46.106Z,-1.95
2023-12-02T00:04:46.068Z,-1.96
2023-12-02T00:05:46.019Z,-1.97
2023-12-02T00:06:46.033Z,-2.01
2023-12-02T00:07:46.072Z,-2.04
2023-12-02T00:08:46.045Z,-2.06
2023-12-02T00:09:46.036Z,-2.07
2023-12-02T00:10:46.049Z,-2.07
2023-12-02T00:11:46.069Z,-2.07
2023-12-02T00:12:46.072Z,-2.06
2023-12-02T00:13:46.043Z,-2.06
2023-12-02T00:14:46.063Z,-2.04
2023-12-02T00:15:46.034Z,-2.04
2023-12-02T00:16:46.061Z,-2.06
2023-12-02T00:17:46.106Z,-2.07
2023-12-02T00:18:46.087Z,-2.09
2023-12-02T00:19:46.113Z,-2.10
2023-12-02T00:20:46.063Z,-2.11
2023-12-02T00:21:46.079Z,-2.10
2023-12-02T00:22:46.130Z,-2.09
2023-12-02T00:23:46.050Z,-2.09
2023-12-02T00:24:46.035Z,-2.08
2023-12-02T00:25:46.083Z,-2.07
2023-12-02T00:26:46.058Z,-2.05
2023-12-02T00:27:46.085Z,-2.04
2023-12-02T00:28:46.058Z,-2.03
2023-12-02T00:29:46.040Z,-2.01
2023-12-02T00:30:46.052Z,-2.02
2023-12-02T00:31:46.060Z,-2.03
2023-12-02T00:32:46.063Z,-2.07
2023-12-02T00:33:46.125Z,-2.09
2023-12-02T00:34:46.102Z,-2.11
2023-12-02T00:35:46.044Z,-2.11
2023-12-02T00:36:46.090Z,-2.12
2023-12-02T00:37:46.066Z,-2.14
2023-12-02T00:38:46.133Z,-2.14
2023-12-02T00:39:46.059Z,-2.15
2023-12-02T00:40:46.062Z,-2.14
2023-12-02T00:41:46.061Z,-2.15
2023-12-02T00:42:46.097Z,-2.15
2023-12-02T00:43:46.069Z,-2.15
2023-12-02T00:44:46.063Z,-2.15
2023-12-02T00:45:46.047Z,-2.17
2023-12-02T00:46:46.076Z,-2.19
2023-12-02T00:47:46.104Z,-2.22
2023-12-02T00:48:46.132Z,-2.23
2023-12-02T00:49:46.100Z,-2.26
2023-12-02T00:50:46.059Z,-2.27
2023-12-02T00:51:46.075Z,-2.27
2023-12-02T00:52:46.092Z,-2.25
2023-12-02T00:53:46.100Z,-2.23
2023-12-02T00:54:46.115Z,-2.22
2023-12-02T00:55:46.069Z,-2.22
2023-12-02T00:56:46.091Z,-2.22
2023-12-02T00:57:46.054Z,-2.23
2023-12-02T00:58:46.107Z,-2.25
2023-12-02T00:59:46.074Z,-2.24
2023-12-02T01:00:46.087Z,-2.24
2023-12-02T01:01:46.092Z,-2.26
2023-12-02T01:02:46.108Z,-2.26
2023-12-02T01:03:46.117Z,-2.24
2023-12-02T01:04:46.146Z,-2.24
2023-12-02T01:05:46.193Z,-2.24
2023-12-02T01:06:46.093Z,-2.25
2023-12-02T01:07:46.073Z,-2.26
2023-12-02T01:08:46.084Z,-2.26
2023-12-02T01:09:46.110Z,-2.24
2023-12-02T01:10:46.100Z,-2.24
2023-12-02T01:11:46.079Z,-2.22
2023-12-02T01:12:46.104Z,-2.21
2023-12-02T01:13:46.090Z,-2.21
2023-12-02T01:14:46.096Z,-2.21
2023-12-02T01:15:46.133Z,-2.24
2023-12-02T01:16:46.236Z,-2.25
2023-12-02T01:17:46.197Z,-2.24
2023-12-02T01:18:46.202Z,-2.24
2023-12-02T01:19:46.214Z,-2.23
2023-12-02T01:20:46.097Z,-2.22
2023-12-02T01:21:46.101Z,-2.23
2023-12-02T01:22:46.116Z,-2.26
2023-12-02T01:23:46.120Z,-2.27
2023-12-02T01:24:46.105Z,-2.27
2023-12-02T01:25:46.107Z,-2.29
2023-12-02T01:26:46.300Z,-2.28
2023-12-02T01:27:46.095Z,-2.30
2023-12-02T01:28:46.121Z,-2.29
2023-12-02T01:29:47.907Z,-2.30
2023-12-02T01:30:46.101Z,-2.29
2023-12-02T01:31:46.138Z,-2.28
2023-12-02T01:32:46.129Z,-2.27
2023-12-02T01:33:46.167Z,-2.27
2023-12-02T01:34:46.164Z,-2.27
2023-12-02T01:35:46.121Z,-2.26
2023-12-02T01:36:46.137Z,-2.26
2023-12-02T01:37:46.142Z,-2.26
2023-12-02T01:38:46.104Z,-2.24
2023-12-02T01:39:46.090Z,-2.22
2023-12-02T01:40:46.085Z,-2.26
2023-12-02T01:41:46.116Z,-2.24
2023-12-02T01:42:46.139Z,-2.23
2023-12-02T01:43:46.086Z,-2.21
2023-12-02T01:44:46.126Z,-2.21
2023-12-02T01:45:46.137Z,-2.22
2023-12-02T01:46:46.111Z,-2.20
2023-12-02T01:47:46.185Z,-2.19
2023-12-02T01:48:46.203Z,-2.16
2023-12-02T01:49:46.137Z,-2.14
2023-12-02T01:50:46.185Z,-2.14
2023-12-02T01:51:46.117Z,-2.12
2023-12-02T01:52:46.122Z,-2.12
2023-12-02T01:53:46.160Z,-2.13
2023-12-02T01:54:46.104Z,-2.12
2023-12-02T01:55:46.130Z,-2.11
2023-12-02T01:56:46.117Z,-2.12
2023-12-02T01:57:46.123Z,-2.11
2023-12-02T01:58:46.164Z,-2.11
2023-12-02T01:59:46.122Z,-2.13
2023-12-02T02:00:46.107Z,-2.13
2023-12-02T02:01:46.133Z,-2.12
2023-12-02T02:02:46.152Z,-2.12
2023-12-02T02:03:46.140Z,-2.14
2023-12-02T02:04:46.216Z,-2.14
2023-12-02T02:05:46.129Z,-2.14
2023-12-02T02:06:46.146Z,-2.15
2023-12-02T02:07:46.140Z,-2.15
2023-12-02T02:08:46.138Z,-2.13
2023-12-02T02:09:46.145Z,-2.12
2023-12-02T02:10:46.122Z,-2.13
2023-12-02T02:11:46.133Z,-2.13
2023-12-02T02:12:46.119Z,-2.09
2023-12-02T02:13:46.162Z,-2.07
2023-12-02T02:14:46.225Z,-2.06
2023-12-02T02:15:46.137Z,-2.04
2023-12-02T02:16:46.144Z,-2.04
2023-12-02T02:17:46.194Z,-2.04
2023-12-02T02:18:46.370Z,-2.05
2023-12-02T02:19:46.217Z,-2.05
2023-12-02T02:20:46.122Z,-2.06
2023-12-02T02:21:46.152Z,-2.04
2023-12-02T02:22:46.140Z,-2.06
2023-12-02T02:23:46.161Z,-2.06
2023-12-02T02:24:46.145Z,-2.07
2023-12-02T02:25:46.170Z,-2.06
2023-12-02T02:26:46.155Z,-2.05
2023-12-02T02:27:46.137Z,-2.04
2023-12-02T02:28:46.129Z,-2.04
2023-12-02T02:29:46.170Z,-2.04
2023-12-02T02:30:46.154Z,-2.04
2023-12-02T02:31:46.178Z,-2.04
2023-12-02T02:32:46.187Z,-2.05
2023-12-02T02:33:46.196Z,-2.05
2023-12-02T02:34:46.252Z,-2.04
2023-12-02T02:35:46.142Z,-2.05
2023-12-02T02:36:46.173Z,-2.04
2023-12-02T02:37:46.173Z,-2.03
2023-12-02T02:38:46.153Z,-2.04
2023-12-02T02:39:46.307Z,-2.05
2023-12-02T02:40:46.165Z,-2.03
2023-12-02T02:41:46.153Z,-2.03
2023-12-02T02:42:46.199Z,-2.02
2023-12-02T02:43:46.166Z,-2.03
2023-12-02T02:44:46.174Z,-2.04
2023-12-02T02:45:46.185Z,-2.08
2023-12-02T02:46:46.183Z,-2.08
2023-12-02T02:47:46.433Z,-2.11
2023-12-02T02:48:46.271Z,-2.10
2023-12-02T02:49:46.190Z,-2.11
2023-12-02T02:50:46.193Z,-2.12
2023-12-02T02:51:46.164Z,-2.12
2023-12-02T02:52:46.180Z,-2.14
2023-12-02T02:53:46.182Z,-2.14
2023-12-02T02:54:46.160Z,-2.14
2023-12-02T02:55:46.379Z,-2.15
2023-12-02T02:56:46.165Z,-2.15
2023-12-02T02:57:46.166Z,-2.14
2023-12-02T02:58:46.166Z,-2.16
2023-12-02T02:59:46.155Z,-2.19
2023-12-02T03:00:46.215Z,-2.18
2023-12-02T03:01:46.191Z,-2.19
2023-12-02T03:02:46.168Z,-2.19
2023-12-02T03:03:46.226Z,-2.17
2023-12-02T03:04:46.165Z,-2.16
2023-12-02T03:05:46.198Z,-2.15
2023-12-02T03:06:46.309Z,-2.16
2023-12-02T03:07:46.142Z,-2.17
2023-12-02T03:08:46.192Z,-2.20
2023-12-02T03:09:46.216Z,-2.22
2023-12-02T03:10:46.256Z,-2.22
2023-12-02T03:11:46.207Z,-2.22
2023-12-02T03:12:46.230Z,-2.23
2023-12-02T03:13:46.191Z,-2.21
2023-12-02T03:14:46.182Z,-2.18
2023-12-02T03:15:46.164Z,-2.16
2023-12-02T03:16:46.219Z,-2.15
2023-12-02T03:17:46.207Z,-2.14
2023-12-02T03:18:46.379Z,-2.16
2023-12-02T03:19:46.212Z,-2.17
2023-12-02T03:20:46.174Z,-2.17
2023-12-02T03:21:46.202Z,-2.17
2023-12-02T03:22:46.206Z,-2.19
2023-12-02T03:23:46.164Z,-2.21
2023-12-02T03:24:46.215Z,-2.22
2023-12-02T03:25:46.221Z,-2.21
2023-12-02T03:26:46.216Z,-2.21
2023-12-02T03:27:46.181Z,-2.19
2023-12-02T03:28:46.190Z,-2.18
2023-12-02T03:29:46.193Z,-2.18
2023-12-02T03:30:46.203Z,-2.16
2023-12-02T03:31:46.254Z,-2.16
2023-12-02T03:32:46.242Z,-2.15
2023-12-02T03:33:46.220Z,-2.12
2023-12-02T03:34:46.211Z,-2.12
2023-12-02T03:35:46.193Z,-2.12
2023-12-02T03:36:46.223Z,-2.10
2023-12-02T03:37:46.232Z,-2.10
2023-12-02T03:38:46.207Z,-2.09
2023-12-02T03:39:46.180Z,-2.12
2023-12-02T03:40:46.230Z,-2.12
2023-12-02T03:41:46.238Z,-2.13
2023-12-02T03:42:46.210Z,-2.14
2023-12-02T03:43:55.049Z,-2.14
2023-12-02T03:44:46.229Z,-2.13
2023-12-02T03:45:46.201Z,-2.11
2023-12-02T03:46:46.190Z,-2.11
2023-12-02T03:47:46.299Z,-2.11
2023-12-02T03:48:46.361Z,-2.12
2023-12-02T03:49:46.246Z,-2.14
2023-12-02T03:50:46.227Z,-2.15
2023-12-02T03:51:46.234Z,-2.15
2023-12-02T03:52:46.248Z,-2.14
2023-12-02T03:53:46.303Z,-2.12
2023-12-02T03:54:46.246Z,-2.10
2023-12-02T03:55:46.242Z,-2.12
2023-12-02T03:56:46.238Z,-2.13
2023-12-02T03:57:46.198Z,-2.16
2023-12-02T03:58:46.221Z,-2.17
2023-12-02T03:59:46.255Z,-2.15
2023-12-02T04:00:46.244Z,-2.15
2023-12-02T04:01:46.244Z,-2.15
2023-12-02T04:02:46.280Z,-2.15
2023-12-02T04:03:46.265Z,-2.16
2023-12-02T04:04:46.257Z,-2.18
2023-12-02T04:05:46.234Z,-2.22
2023-12-02T04:06:46.298Z,-2.26
2023-12-02T04:07:46.356Z,-2.27
2023-12-02T04:08:46.228Z,-2.27
2023-12-02T04:09:46.305Z,-2.26
2023-12-02T04:10:46.231Z,-2.24
2023-12-02T04:11:46.225Z,-2.23
2023-12-02T04:12:46.234Z,-2.24
2023-12-02T04:13:46.240Z,-2.26
2023-12-02T04:14:46.283Z,-2.26
2023-12-02T04:15:46.282Z,-2.25
2023-12-02T04:16:46.251Z,-2.23
2023-12-02T04:17:46.275Z,-2.25
2023-12-02T04:18:46.299Z,-2.26
2023-12-02T04:19:46.365Z,-2.26
2023-12-02T04:20:46.228Z,-2.29
2023-12-02T04:21:46.285Z,-2.30
2023-12-02T04:22:46.247Z,-2.29
2023-12-02T04:23:46.263Z,-2.29
2023-12-02T04:24:46.263Z,-2.28
2023-12-02T04:25:46.258Z,-2.29
2023-12-02T04:26:46.224Z,-2.29
2023-12-02T04:27:46.258Z,-2.28
2023-12-02T04:28:46.289Z,-2.28
2023-12-02T04:29:46.357Z,-2.28
2023-12-02T04:30:46.296Z,-2.28
2023-12-02T04:31:46.252Z,-2.28
2023-12-02T04:32:46.366Z,-2.27
2023-12-02T04:33:46.378Z,-2.27
2023-12-02T04:34:46.305Z,-2.26
2023-12-02T04:35:46.275Z,-2.27
2023-12-02T04:36:46.229Z,-2.28
2023-12-02T04:37:46.242Z,-2.28
2023-12-02T04:38:46.297Z,-2.27
2023-12-02T04:39:46.370Z,-2.26
2023-12-02T04:40:46.237Z,-2.25
2023-12-02T04:41:46.278Z,-2.24
2023-12-02T04:42:46.259Z,-2.25
2023-12-02T04:43:46.270Z,-2.25
2023-12-02T04:44:46.301Z,-2.24
2023-12-02T04:45:46.351Z,-2.22
2023-12-02T04:46:46.296Z,-2.21
2023-12-02T04:47:46.320Z,-2.22
2023-12-02T04:48:46.382Z,-2.23
2023-12-02T04:49:46.382Z,-2.25
2023-12-02T04:50:46.306Z,-2.26
2023-12-02T04:51:46.286Z,-2.26
2023-12-02T04:52:46.262Z,-2.27
2023-12-02T04:53:46.289Z,-2.29
2023-12-02T04:54:46.264Z,-2.27
2023-12-02T04:55:46.268Z,-2.28
2023-12-02T04:56:46.285Z,-2.29
2023-12-02T04:57:46.276Z,-2.27
2023-12-02T04:58:46.286Z,-2.26
2023-12-02T04:59:46.293Z,-2.25
2023-12-02T05:00:46.374Z,-2.27
2023-12-02T05:01:46.301Z,-2.27
2023-12-02T05:02:46.279Z,-2.27
2023-12-02T05:03:46.337Z,-2.27
2023-12-02T05:04:46.284Z,-2.28
2023-12-02T05:05:46.335Z,-2.29
2023-12-02T05:06:46.396Z,-2.29
2023-12-02T05:07:46.299Z,-2.31
2023-12-02T05:08:46.282Z,-2.34
2023-12-02T05:09:46.321Z,-2.32
2023-12-02T05:10:46.368Z,-2.32
2023-12-02T05:11:46.316Z,-2.32
2023-12-02T05:12:46.296Z,-2.33
2023-12-02T05:13:46.261Z,-2.32
2023-12-02T05:14:46.287Z,-2.30
2023-12-02T05:15:46.407Z,-2.30
2023-12-02T05:16:46.364Z,-2.28
2023-12-02T05:17:46.290Z,-2.25
2023-12-02T05:18:46.785Z,-2.25
2023-12-02T05:19:46.374Z,-2.25
2023-12-02T05:20:46.300Z,-2.26
2023-12-02T05:21:46.323Z,-2.26
2023-12-02T05:22:47.679Z,-2.26
2023-12-02T05:23:46.270Z,-2.24
2023-12-02T05:24:46.286Z,-2.25
2023-12-02T05:25:46.296Z,-2.23
2023-12-02T05:26:46.321Z,-2.25
2023-12-02T05:27:46.305Z,-2.22
2023-12-02T05:28:46.319Z,-2.21
2023-12-02T05:29:46.308Z,-2.21
2023-12-02T05:30:46.342Z,-2.22
2023-12-02T05:31:46.312Z,-2.23
2023-12-02T05:32:46.386Z,-2.22
2023-12-02T05:33:46.374Z,-2.22
2023-12-02T05:34:46.352Z,-2.20
2023-12-02T05:35:46.317Z,-2.19
2023-12-02T05:36:46.284Z,-2.19
2023-12-02T05:37:46.317Z,-2.20
2023-12-02T05:38:46.356Z,-2.20
2023-12-02T05:39:46.297Z,-2.20
2023-12-02T05:40:46.332Z,-2.20
2023-12-02T05:41:46.306Z,-2.20
2023-12-02T05:42:46.352Z,-2.21
2023-12-02T05:43:46.337Z,-2.21
2023-12-02T05:44:46.336Z,-2.23
2023-12-02T05:45:46.327Z,-2.27
2023-12-02T05:46:46.317Z,-2.29
2023-12-02T05:47:46.446Z,-2.31
2023-12-02T05:48:46.583Z,-2.30
2023-12-02T05:49:46.302Z,-2.29
2023-12-02T05:50:46.361Z,-2.28
2023-12-02T05:51:46.519Z,-2.29
2023-12-02T05:52:46.328Z,-2.28
2023-12-02T05:53:46.337Z,-2.26
2023-12-02T05:54:46.308Z,-2.27
2023-12-02T05:55:46.351Z,-2.28
2023-12-02T05:56:46.369Z,-2.30
2023-12-02T05:57:46.301Z,-2.32
2023-12-02T05:58:46.329Z,-2.30
2023-12-02T05:59:46.302Z,-2.28
2023-12-02T06:00:46.338Z,-2.29
2023-12-02T06:01:46.300Z,-2.28
2023-12-02T06:02:46.338Z,-2.30
2023-12-02T06:03:46.394Z,-2.30
2023-12-02T06:04:46.363Z,-2.33
2023-12-02T06:05:46.314Z,-2.34
2023-12-02T06:06:46.336Z,-2.35
2023-12-02T06:07:46.322Z,-2.36
2023-12-02T06:08:46.311Z,-2.37
2023-12-02T06:09:46.354Z,-2.40
2023-12-02T06:10:46.314Z,-2.42
2023-12-02T06:11:46.347Z,-2.46
2023-12-02T06:12:46.330Z,-2.49
2023-12-02T06:13:46.396Z,-2.50
2023-12-02T06:14:46.332Z,-2.50
2023-12-02T06:15:46.378Z,-2.50
2023-12-02T06:16:46.337Z,-2.50
2023-12-02T06:17:46.467Z,-2.54
2023-12-02T06:18:46.495Z,-2.51
2023-12-02T06:19:46.369Z,-2.51
2023-12-02T06:20:46.342Z,-2.51
2023-12-02T06:21:46.545Z,-2.52
2023-12-02T06:22:46.353Z,-2.52
2023-12-02T06:23:46.360Z,-2.52
2023-12-02T06:24:46.408Z,-2.52
2023-12-02T06:25:46.401Z,-2.53
2023-12-02T06:26:46.329Z,-2.54
2023-12-02T06:27:46.357Z,-2.57
2023-12-02T06:28:46.355Z,-2.57
2023-12-02T06:29:46.376Z,-2.57
2023-12-02T06:30:46.381Z,-2.57
2023-12-02T06:31:46.371Z,-2.56
2023-12-02T06:32:46.365Z,-2.54
2023-12-02T06:33:46.423Z,-2.54
2023-12-02T06:34:46.498Z,-2.54
2023-12-02T06:35:46.362Z,-2.54
2023-12-02T06:36:46.359Z,-2.54
2023-12-02T06:37:46.330Z,-2.52
2023-12-02T06:38:46.363Z,-2.51
2023-12-02T06:39:46.374Z,-2.51
2023-12-02T06:40:46.454Z,-2.50
2023-12-02T06:41:46.373Z,-2.49
2023-12-02T06:42:46.405Z,-2.48
2023-12-02T06:43:46.348Z,-2.49
2023-12-02T06:44:46.955Z,-2.49
2023-12-02T06:45:46.462Z,-2.50
2023-12-02T06:46:46.347Z,-2.51
2023-12-02T06:47:46.358Z,-2.49
2023-12-02T06:48:46.429Z,-2.51
2023-12-02T06:49:46.409Z,-2.52
2023-12-02T06:50:46.399Z,-2.52
2023-12-02T06:51:46.427Z,-2.50
2023-12-02T06:52:46.371Z,-2.53
2023-12-02T06:53:46.360Z,-2.54
2023-12-02T06:55:46.444Z,-2.57
2023-12-02T06:56:46.358Z,-2.58
2023-12-02T06:57:46.412Z,-2.59
2023-12-02T06:58:46.374Z,-2.59
2023-12-02T06:59:46.351Z,-2.60
2023-12-02T07:00:46.491Z,-2.59
2023-12-02T07:01:46.521Z,-2.59
2023-12-02T07:02:46.363Z,-2.59
2023-12-02T07:03:46.407Z,-2.58
2023-12-02T07:04:46.365Z,-2.58
2023-12-02T07:05:46.442Z,-2.57
2023-12-02T07:06:46.473Z,-2.56
2023-12-02T07:07:46.397Z,-2.57
2023-12-02T07:08:46.382Z,-2.57
2023-12-02T07:09:46.382Z,-2.57
2023-12-02T07:10:46.380Z,-2.58
2023-12-02T07:11:46.406Z,-2.59
2023-12-02T07:12:46.404Z,-2.59
2023-12-02T07:13:46.381Z,-2.60
2023-12-02T07:14:46.353Z,-2.59
2023-12-02T07:15:46.403Z,-2.57
2023-12-02T07:18:46.594Z,-2.56
2023-12-02T07:19:46.419Z,-2.55
2023-12-02T07:20:46.400Z,-2.53
2023-12-02T07:21:46.388Z,-2.51
2023-12-02T07:24:46.386Z,-2.52
2023-12-02T07:25:46.420Z,-2.53
2023-12-02T07:26:46.406Z,-2.53
2023-12-02T07:28:46.389Z,-2.49
2023-12-02T07:30:46.421Z,-2.48
2023-12-02T07:31:46.407Z,-2.49
2023-12-02T07:33:46.458Z,-2.48
2023-12-02T07:34:46.447Z,-2.49
2023-12-02T07:35:46.409Z,-2.50
2023-12-02T07:36:46.445Z,-2.52
2023-12-02T07:38:46.407Z,-2.52
2023-12-02T07:39:46.703Z,-2.51
2023-12-02T07:40:46.436Z,-2.50
2023-12-02T07:41:46.430Z,-2.49
2023-12-02T07:43:46.444Z,-2.45
2023-12-02T07:44:46.426Z,-2.42
2023-12-02T07:45:46.411Z,-2.40
2023-12-02T07:46:46.446Z,-2.39
2023-12-02T07:48:46.416Z,-2.38
2023-12-02T07:49:46.453Z,-2.40
2023-12-02T07:50:46.452Z,-2.41
2023-12-02T07:51:46.425Z,-2.43
2023-12-02T07:54:46.404Z,-2.45
2023-12-02T07:55:47.285Z,-2.44
2023-12-02T07:56:46.458Z,-2.44
2023-12-02T07:57:46.438Z,-2.42
2023-12-02T07:59:46.416Z,-2.45
2023-12-02T08:00:46.405Z,-2.43
2023-12-02T08:01:46.552Z,-2.42
2023-12-02T08:02:46.538Z,-2.39
2023-12-02T08:05:46.461Z,-2.36
2023-12-02T08:06:46.464Z,-2.36
2023-12-02T08:07:46.424Z,-2.38
2023-12-02T08:08:46.402Z,-2.37
2023-12-02T08:10:46.484Z,-2.35
2023-12-02T08:11:46.483Z,-2.33
2023-12-02T08:12:46.495Z,-2.33
2023-12-02T08:13:46.527Z,-2.30
2023-12-02T08:15:46.441Z,-2.26
2023-12-02T08:16:48.359Z,-2.26
2023-12-02T08:17:46.427Z,-2.29
2023-12-02T08:18:46.448Z,-2.31
2023-12-02T08:21:46.457Z,-2.33
2023-12-02T08:22:46.466Z,-2.30
2023-12-02T08:23:46.445Z,-2.30
2023-12-02T08:26:46.474Z,-2.29
2023-12-02T08:27:46.471Z,-2.28
2023-12-02T08:28:46.487Z,-2.26
2023-12-02T08:29:46.450Z,-2.25
2023-12-02T08:31:46.477Z,-2.26
2023-12-02T08:32:46.444Z,-2.28
2023-12-02T08:33:46.472Z,-2.30
2023-12-02T08:34:46.502Z,-2.31
2023-12-02T08:36:46.442Z,-2.31
2023-12-02T08:37:46.464Z,-2.30
2023-12-02T08:38:46.439Z,-2.31
2023-12-02T08:39:46.490Z,-2.30
2023-12-02T08:42:46.447Z,-2.21
2023-12-02T08:43:46.482Z,-2.22
2023-12-02T08:44:46.457Z,-2.23
2023-12-02T08:45:46.457Z,-2.24
2023-12-02T08:48:46.561Z,-2.24
2023-12-02T08:49:46.522Z,-2.25
2023-12-02T08:50:46.457Z,-2.25
2023-12-02T08:51:46.458Z,-2.25
2023-12-02T08:53:46.458Z,-2.21
2023-12-02T08:54:46.463Z,-2.20
2023-12-02T08:55:46.535Z,-2.19
2023-12-02T08:56:46.440Z,-2.15
2023-12-02T08:58:46.515Z,-2.16
2023-12-02T08:59:46.471Z,-2.14
2023-12-02T09:00:48.830Z,-2.14
2023-12-02T09:01:46.529Z,-2.15
2023-12-02T09:04:46.537Z,-2.09
2023-12-02T09:05:46.533Z,-2.08
2023-12-02T09:06:46.476Z,-2.06
2023-12-02T09:07:46.529Z,-2.06
2023-12-02T09:10:46.559Z,-2.14
2023-12-02T09:11:46.501Z,-2.14
2023-12-02T09:12:46.483Z,-2.16
2023-12-02T09:13:46.508Z,-2.17
2023-12-02T09:15:46.469Z,-2.14
2023-12-02T09:16:46.548Z,-2.12
2023-12-02T09:17:46.545Z,-2.12
2023-12-02T09:18:46.520Z,-2.09
2023-12-02T09:21:46.542Z,-1.99
2023-12-02T09:22:46.488Z,-1.97
2023-12-02T09:23:46.499Z,-1.96
2023-12-02T09:25:46.560Z,-1.97
2023-12-02T09:26:46.482Z,-1.98
2023-12-02T09:27:46.482Z,-2.01
2023-12-02T09:28:46.547Z,-2.05
2023-12-02T09:31:46.527Z,-2.05
2023-12-02T09:32:46.612Z,-2.04
2023-12-02T09:33:46.537Z,-2.01
2023-12-02T09:35:46.479Z,-2.05
2023-12-02T09:36:46.517Z,-2.06
2023-12-02T09:37:46.646Z,-2.07
2023-12-02T09:38:46.485Z,-2.08
2023-12-02T09:41:46.502Z,-2.10
2023-12-02T09:42:46.519Z,-2.09
2023-12-02T09:43:46.557Z,-2.11
2023-12-02T09:44:46.540Z,-2.11
2023-12-02T09:46:46.526Z,-2.09
2023-12-02T09:47:46.539Z,-2.07
2023-12-02T09:48:46.581Z,-2.06
2023-12-02T09:49:46.543Z,-2.07
2023-12-02T09:51:46.533Z,-2.04
2023-12-02T09:52:46.547Z,-2.05
2023-12-02T09:53:46.491Z,-2.03
2023-12-02T09:54:46.510Z,-2.03
2023-12-02T09:56:46.513Z,-2.06
2023-12-02T09:57:46.526Z,-2.09
2023-12-02T09:58:46.561Z,-2.13
2023-12-02T09:59:46.486Z,-2.14
2023-12-02T10:02:46.592Z,-2.15
2023-12-02T10:03:46.516Z,-2.14
2023-12-02T10:04:46.711Z,-2.14
2023-12-02T10:06:46.572Z,-2.16
2023-12-02T10:07:46.609Z,-2.16
2023-12-02T10:08:46.527Z,-2.17
2023-12-02T10:09:46.526Z,-2.19
2023-12-02T10:11:46.534Z,-2.20
2023-12-02T10:12:46.538Z,-2.20
2023-12-02T10:13:46.796Z,-2.19
2023-12-02T10:14:46.539Z,-2.20
2023-12-02T10:16:46.558Z,-2.15
2023-12-02T10:17:46.568Z,-2.13
2023-12-02T10:18:46.568Z,-2.10
2023-12-02T10:19:46.582Z,-2.07
2023-12-02T10:22:46.624Z,-2.13
2023-12-02T10:23:46.514Z,-2.12
2023-12-02T10:24:46.560Z,-2.13
2023-12-02T10:26:46.533Z,-2.12
2023-12-02T10:27:46.555Z,-2.09
2023-12-02T10:28:46.621Z,-2.09
2023-12-02T10:29:46.572Z,-2.10
2023-12-02T10:32:46.565Z,-2.12
2023-12-02T10:33:46.539Z,-2.11
2023-12-02T10:34:46.606Z,-2.10
2023-12-02T10:36:46.568Z,-2.06
2023-12-02T10:37:46.596Z,-2.06
2023-12-02T10:38:46.587Z,-2.05
2023-12-02T10:39:46.531Z,-2.04
2023-12-02T10:42:46.628Z,-2.01
2023-12-02T10:43:46.576Z,-2.01
2023-12-02T10:44:46.534Z,-2.03
2023-12-02T10:45:46.539Z,-2.05
2023-12-02T10:47:46.595Z,-2.09
2023-12-02T10:48:46.613Z,-2.10
2023-12-02T10:49:46.651Z,-2.09
2023-12-02T10:50:46.567Z,-2.09
2023-12-02T10:53:46.556Z,-2.06
2023-12-02T10:54:46.582Z,-2.05
2023-12-02T10:55:46.556Z,-2.04
2023-12-02T10:56:46.573Z,-2.02
2023-12-02T10:58:46.561Z,-2.02
2023-12-02T10:59:46.544Z,-2.03
2023-12-02T11:00:46.674Z,-2.04
2023-12-02T11:01:46.654Z,-2.00
2023-12-02T11:03:46.566Z,-2.02
2023-12-02T11:04:46.556Z,-2.02
2023-12-02T11:05:46.663Z,-2.00
2023-12-02T11:06:46.635Z,-1.98
2023-12-02T11:09:48.029Z,-1.85
2023-12-02T11:10:46.580Z,-1.81
2023-12-02T11:11:46.601Z,-1.77
2023-12-02T11:12:46.556Z,-1.75
2023-12-02T11:15:46.659Z,-1.74
2023-12-02T11:16:46.637Z,-1.74
2023-12-02T11:17:46.630Z,-1.76
2023-12-02T11:19:46.616Z,-1.81
2023-12-02T11:20:46.605Z,-1.78
2023-12-02T11:21:46.614Z,-1.75
2023-12-02T11:22:46.635Z,-1.73
2023-12-02T11:24:46.615Z,-1.69
2023-12-02T11:25:46.630Z,-1.68
2023-12-02T11:26:46.600Z,-1.67
2023-12-02T11:27:46.627Z,-1.64
2023-12-02T11:29:46.657Z,-1.65
2023-12-02T11:30:46.623Z,-1.68
2023-12-02T11:31:46.618Z,-1.70
2023-12-02T11:32:46.632Z,-1.71
2023-12-02T11:34:46.638Z,-1.66
2023-12-02T11:35:46.646Z,-1.65
2023-12-02T11:36:46.614Z,-1.62
2023-12-02T11:37:46.606Z,-1.61
2023-12-02T11:39:46.679Z,-1.68
2023-12-02T11:40:46.604Z,-1.71
2023-12-02T11:41:46.638Z,-1.73
2023-12-02T11:42:46.616Z,-1.72
2023-12-02T11:44:46.667Z,-1.71
2023-12-02T11:45:46.662Z,-1.70
2023-12-02T11:46:46.618Z,-1.71
2023-12-02T11:47:46.780Z,-1.69
2023-12-02T11:50:46.619Z,-1.70
2023-12-02T11:51:46.633Z,-1.73
2023-12-02T11:52:46.631Z,-1.71
2023-12-02T11:54:46.617Z,-1.68
2023-12-02T11:55:47.214Z,-1.70
2023-12-02T11:56:46.647Z,-1.72
2023-12-02T11:57:46.619Z,-1.70
2023-12-02T11:59:46.634Z,-1.69
2023-12-02T12:00:46.914Z,-1.73
2023-12-02T12:01:46.636Z,-1.74
2023-12-02T12:02:46.675Z,-1.71
2023-12-02T12:05:46.713Z,-1.69
2023-12-02T12:06:46.734Z,-1.69
2023-12-02T12:07:46.744Z,-1.69
2023-12-02T12:08:46.627Z,-1.66
2023-12-02T12:10:46.654Z,-1.62
2023-12-02T12:11:46.645Z,-1.60
2023-12-02T12:12:46.640Z,-1.57
2023-12-02T12:13:46.694Z,-1.55
2023-12-02T12:15:46.696Z,-1.71
2023-12-02T12:16:46.651Z,-1.80
2023-12-02T12:17:46.745Z,-1.82
2023-12-02T12:18:46.720Z,-1.81
2023-12-02T12:21:46.715Z,-1.77
2023-12-02T12:22:46.715Z,-1.73
2023-12-02T12:23:46.649Z,-1.70
2023-12-02T12:24:46.726Z,-1.67
2023-12-02T12:27:46.657Z,-1.62
2023-12-02T12:28:46.674Z,-1.65
2023-12-02T12:29:46.698Z,-1.65
2023-12-02T12:30:46.662Z,-1.68
2023-12-02T12:32:46.731Z,-1.69
2023-12-02T12:33:46.740Z,-1.70
2023-12-02T12:34:46.687Z,-1.70
2023-12-02T12:35:46.673Z,-1.71
2023-12-02T12:37:46.675Z,-1.67
2023-12-02T12:38:46.662Z,-1.64
2023-12-02T12:39:46.670Z,-1.59
2023-12-02T12:40:46.677Z,-1.59
2023-12-02T12:42:46.681Z,-1.64
2023-12-02T12:43:48.727Z,-1.65
2023-12-02T12:44:46.665Z,-1.68
2023-12-02T12:45:46.758Z,-1.69
2023-12-02T12:47:47.154Z,-1.67
2023-12-02T12:48:46.796Z,-1.67
2023-12-02T12:49:49.840Z,-1.67
2023-12-02T12:50:46.668Z,-1.66
2023-12-02T12:52:46.729Z,-1.71
2023-12-02T12:53:46.688Z,-1.69
2023-12-02T12:54:46.689Z,-1.66
2023-12-02T12:55:48.573Z,-1.61
2023-12-02T12:57:46.699Z,-1.55
2023-12-02T12:58:46.707Z,-1.50
2023-12-02T12:59:46.691Z,-1.48
2023-12-02T13:00:46.738Z,-1.48
2023-12-02T13:02:46.689Z,-1.44
2023-12-02T13:03:46.707Z,-1.41
2023-12-02T13:04:46.739Z,-1.39
2023-12-02T13:05:46.789Z,-1.38
2023-12-02T13:08:46.684Z,-1.40
2023-12-02T13:09:46.772Z,-1.42
2023-12-02T13:10:46.705Z,-1.39
2023-12-02T13:11:46.709Z,-1.37
2023-12-02T13:13:48.191Z,-1.34
2023-12-02T13:14:46.736Z,-1.34
2023-12-02T13:15:46.713Z,-1.35
2023-12-02T13:16:46.735Z,-1.46
2023-12-02T13:18:46.779Z,-1.55
2023-12-02T13:19:46.834Z,-1.60
2023-12-02T13:20:46.691Z,-1.62
2023-12-02T13:21:46.814Z,-1.65
2023-12-02T13:23:46.745Z,-1.60
2023-12-02T13:24:46.760Z,-1.59
2023-12-02T13:25:46.702Z,-1.55
2023-12-02T13:26:46.732Z,-1.55
2023-12-02T13:28:46.744Z,-1.50
2023-12-02T13:29:46.718Z,-1.49
2023-12-02T13:30:46.704Z,-1.48
2023-12-02T13:31:46.702Z,-1.45
2023-12-02T13:33:46.790Z,-1.44
2023-12-02T13:34:46.798Z,-1.44
2023-12-02T13:35:46.703Z,-1.45
2023-12-02T13:36:46.732Z,-1.43
2023-12-02T13:39:46.716Z,-1.40
2023-12-02T13:40:46.716Z,-1.38
2023-12-02T13:41:46.733Z,-1.35
2023-12-02T13:42:46.765Z,-1.32
2023-12-02T13:44:46.752Z,-1.25
2023-12-02T13:45:46.786Z,-1.22
2023-12-02T13:46:46.752Z,-1.19
2023-12-02T13:47:46.750Z,-1.17
2023-12-02T13:49:46.766Z,-1.20
2023-12-02T13:50:46.730Z,-1.18
2023-12-02T13:51:46.739Z,-1.19
2023-12-02T13:52:46.750Z,-1.26
2023-12-02T13:54:46.727Z,-1.31
2023-12-02T13:55:46.789Z,-1.28
2023-12-02T13:56:46.747Z,-1.27
2023-12-02T13:57:46.763Z,-1.24
2023-12-02T13:59:46.750Z,-1.18
2023-12-02T14:00:46.759Z,-1.20
2023-12-02T14:01:46.833Z,-1.27
2023-12-02T14:02:46.737Z,-1.30
2023-12-02T14:04:46.737Z,-1.36
2023-12-02T14:05:46.794Z,-1.40
2023-12-02T14:06:46.748Z,-1.42
2023-12-02T14:07:46.746Z,-1.41
2023-12-02T14:09:46.757Z,-1.41
2023-12-02T14:10:46.757Z,-1.42
2023-12-02T14:11:46.756Z,-1.40
2023-12-02T14:12:46.759Z,-1.39
2023-12-02T14:14:46.720Z,-1.43
2023-12-02T14:15:46.778Z,-1.44
2023-12-02T14:16:46.774Z,-1.46
2023-12-02T14:17:46.799Z,-1.48
2023-12-02T14:20:46.807Z,-1.51
2023-12-02T14:21:46.763Z,-1.53
2023-12-02T14:22:46.755Z,-1.56
2023-12-02T14:23:46.792Z,-1.57
2023-12-02T14:25:46.753Z,-1.59
2023-12-02T14:26:46.798Z,-1.60
2023-12-02T14:27:46.786Z,-1.62
2023-12-02T14:28:46.758Z,-1.62
2023-12-02T14:30:46.791Z,-1.61
2023-12-02T14:31:46.790Z,-1.59
2023-12-02T14:32:46.878Z,-1.58
2023-12-02T14:33:46.831Z,-1.53
2023-12-02T14:36:46.802Z,-1.45
2023-12-02T14:37:46.769Z,-1.46
2023-12-02T14:38:46.803Z,-1.47
2023-12-02T14:40:46.763Z,-1.51
2023-12-02T14:41:46.768Z,-1.54
2023-12-02T14:42:46.812Z,-1.59
2023-12-02T14:43:46.827Z,-1.61
2023-12-02T14:45:46.994Z,-1.63
2023-12-02T14:46:46.811Z,-1.63
2023-12-02T14:47:46.804Z,-1.62
2023-12-02T14:48:46.808Z,-1.64
2023-12-02T14:51:46.805Z,-1.69